createdAt,value
2018-09-05T00:00:06.496Z,22.43
2018-09-05T00:02:34.158Z,13.90
2018-09-05T00:05:01.836Z,16.03
2018-09-05T00:07:29.607Z,16.47
2018-09-05T00:09:57.125Z,21.70
2018-09-05T00:12:24.711Z,11.27
2018-09-05T00:14:52.387Z,10.27
2018-09-05T00:17:20.066Z,12.17
2018-09-05T00:19:47.731Z,14.73
2018-09-05T00:22:15.502Z,13.37
2018-09-05T00:24:43.306Z,13.97
2018-09-05T00:27:10.969Z,18.67
2018-09-05T00:29:38.680Z,20.80
2018-09-05T00:32:06.363Z,16.93
2018-09-05T00:34:34.063Z,17.97
2018-09-05T00:37:01.607Z,13.00
2018-09-05T00:39:29.302Z,15.63
2018-09-05T00:41:56.851Z,13.67
2018-09-05T00:44:24.577Z,15.37
2018-09-05T00:46:52.188Z,15.53
2018-09-05T00:49:19.906Z,13.97
2018-09-05T00:51:47.545Z,13.77
2018-09-05T00:54:15.231Z,17.30
2018-09-05T00:56:42.977Z,15.83
2018-09-05T00:59:10.641Z,17.10
2018-09-05T01:01:38.277Z,15.97
2018-09-05T01:04:05.866Z,20.10
2018-09-05T01:06:33.717Z,20.93
2018-09-05T01:09:01.362Z,21.27
2018-09-05T01:11:29.051Z,19.50
2018-09-05T01:13:56.689Z,16.30
2018-09-05T01:16:24.427Z,19.43
2018-09-05T01:18:52.052Z,18.07
2018-09-05T01:21:19.786Z,14.97
2018-09-05T01:23:47.456Z,17.97
2018-09-05T01:26:15.101Z,14.43
2018-09-05T01:28:42.622Z,23.37
2018-09-05T01:31:10.321Z,14.97
2018-09-05T01:33:37.961Z,14.33
2018-09-05T01:36:11.675Z,14.37
2018-09-05T01:38:40.329Z,13.33
2018-09-05T01:41:08.021Z,15.80
2018-09-05T01:43:35.733Z,16.70
2018-09-05T01:46:03.447Z,14.87
2018-09-05T01:48:31.144Z,13.50
2018-09-05T01:50:58.831Z,15.17
2018-09-05T01:53:26.603Z,21.00
2018-09-05T01:55:54.280Z,22.80
2018-09-05T01:58:21.857Z,20.10
2018-09-05T02:00:49.542Z,17.97
2018-09-05T02:03:17.212Z,19.90
2018-09-05T02:05:44.888Z,15.97
2018-09-05T02:08:12.596Z,12.27
2018-09-05T02:10:40.234Z,17.73
2018-09-05T02:13:07.942Z,19.33
2018-09-05T02:15:35.471Z,22.20
2018-09-05T02:18:03.231Z,17.80
2018-09-05T02:20:30.858Z,18.90
2018-09-05T02:22:58.486Z,19.37
2018-09-05T02:25:26.229Z,21.30
2018-09-05T02:27:53.942Z,20.97
2018-09-05T02:30:21.551Z,17.40
2018-09-05T02:32:49.178Z,16.60
2018-09-05T02:35:16.887Z,23.10
2018-09-05T02:37:44.632Z,18.63
2018-09-05T02:40:12.253Z,19.93
2018-09-05T02:42:39.892Z,22.63
2018-09-05T02:45:07.658Z,21.00
2018-09-05T02:47:35.562Z,22.80
2018-09-05T02:50:03.427Z,17.73
2018-09-05T02:52:31.428Z,21.23
2018-09-05T02:54:59.169Z,23.97
2018-09-05T02:57:26.821Z,21.17
2018-09-05T02:59:54.512Z,16.20
2018-09-05T03:02:22.207Z,15.93
2018-09-05T03:04:49.954Z,16.07
2018-09-05T03:07:17.614Z,19.03
2018-09-05T03:09:45.290Z,22.13
2018-09-05T03:12:16.602Z,20.83
2018-09-05T03:14:44.231Z,20.37
2018-09-05T03:17:12.011Z,17.80
2018-09-05T03:19:39.689Z,23.47
2018-09-05T03:22:07.380Z,15.80
2018-09-05T03:24:35.044Z,18.30
2018-09-05T03:27:02.643Z,18.93
2018-09-05T03:29:30.280Z,16.30
2018-09-05T03:31:58.024Z,17.97
2018-09-05T03:34:25.657Z,18.47
2018-09-05T03:36:53.391Z,13.97
2018-09-05T03:39:21.037Z,16.53
2018-09-05T03:41:48.611Z,14.37
2018-09-05T03:44:16.268Z,12.03
2018-09-05T03:46:43.949Z,15.23
2018-09-05T03:49:11.622Z,19.63
2018-09-05T03:51:39.174Z,15.80
2018-09-05T03:54:06.844Z,14.23
2018-09-05T03:56:34.497Z,16.17
2018-09-05T03:59:02.187Z,13.53
2018-09-05T04:01:29.883Z,19.63
2018-09-05T04:03:57.512Z,15.83
2018-09-05T04:06:25.192Z,15.03
2018-09-05T04:08:52.975Z,20.30
2018-09-05T04:11:20.638Z,24.30
2018-09-05T04:13:48.893Z,17.20
2018-09-05T04:16:16.568Z,18.83
2018-09-05T04:18:44.123Z,19.80
2018-09-05T04:21:11.779Z,21.67
2018-09-05T04:23:47.925Z,20.63
2018-09-05T04:26:16.824Z,36.60
2018-09-05T04:28:44.545Z,21.00
2018-09-05T04:31:13.484Z,27.13
2018-09-05T04:33:41.448Z,22.50
2018-09-05T04:36:11.194Z,15.83
2018-09-05T04:38:39.054Z,18.77
2018-09-05T04:41:06.802Z,19.33
2018-09-05T04:43:34.367Z,19.63
2018-09-05T04:46:02.084Z,14.67
2018-09-05T04:48:29.659Z,16.53
2018-09-05T04:50:57.402Z,14.57
2018-09-05T04:53:25.104Z,25.57
2018-09-05T04:55:52.854Z,19.07
2018-09-05T04:58:21.104Z,16.67
2018-09-05T05:00:48.785Z,16.43
2018-09-05T05:03:16.307Z,18.37
2018-09-05T05:05:43.984Z,19.20
2018-09-05T05:08:11.580Z,16.43
2018-09-05T05:10:39.285Z,15.60
2018-09-05T05:13:06.944Z,17.13
2018-09-05T05:15:34.698Z,18.93
2018-09-05T05:18:02.258Z,22.90
2018-09-05T05:20:29.915Z,24.70
2018-09-05T05:22:57.752Z,21.00
2018-09-05T05:25:25.424Z,19.73
2018-09-05T05:27:53.244Z,15.03
2018-09-05T05:30:20.770Z,13.47
2018-09-05T05:32:48.506Z,20.63
2018-09-05T05:35:16.167Z,19.03
2018-09-05T05:37:43.918Z,19.77
2018-09-05T05:40:11.580Z,13.47
2018-09-05T05:42:39.246Z,14.63
2018-09-05T05:45:06.968Z,12.73
2018-09-05T05:47:34.980Z,11.20
2018-09-05T05:50:03.299Z,11.17
2018-09-05T05:52:31.637Z,14.40
2018-09-05T05:54:59.530Z,13.80
2018-09-05T05:57:27.446Z,11.50
2018-09-05T05:59:55.145Z,15.17
2018-09-05T06:02:22.824Z,17.70
2018-09-05T06:04:50.554Z,16.87
2018-09-05T06:07:18.235Z,14.37
2018-09-05T06:09:45.799Z,16.37
2018-09-05T06:12:13.581Z,15.33
2018-09-05T06:14:41.216Z,17.30
2018-09-05T06:17:08.914Z,16.17
2018-09-05T06:19:36.593Z,13.80
2018-09-05T06:22:04.334Z,12.00
2018-09-05T06:24:32.633Z,10.97
2018-09-05T06:27:00.295Z,13.63
2018-09-05T06:29:28.065Z,15.67
2018-09-05T06:31:55.749Z,14.83
2018-09-05T06:34:23.310Z,10.07
2018-09-05T06:36:50.879Z,11.97
2018-09-05T06:39:18.601Z,11.00
2018-09-05T06:41:46.319Z,12.23
2018-09-05T06:44:13.958Z,11.10
2018-09-05T06:46:41.679Z,12.50
2018-09-05T06:49:09.355Z,11.23
2018-09-05T06:51:37.059Z,11.15
2018-09-05T06:54:04.780Z,11.17
2018-09-05T06:56:32.488Z,12.57
2018-09-05T06:59:00.209Z,12.20
2018-09-05T07:01:27.909Z,19.27
2018-09-05T07:03:55.643Z,16.13
2018-09-05T07:06:23.382Z,15.90
2018-09-05T07:08:51.004Z,20.23
2018-09-05T07:11:18.820Z,20.00
2018-09-05T07:13:46.493Z,20.30
2018-09-05T07:16:14.222Z,22.70
2018-09-05T07:18:41.970Z,20.57
2018-09-05T07:21:09.647Z,16.50
2018-09-05T07:23:37.398Z,20.50
2018-09-05T07:26:05.798Z,13.60
2018-09-05T07:28:33.384Z,16.77
2018-09-05T07:31:01.177Z,17.63
2018-09-05T07:33:28.744Z,21.37
2018-09-05T07:35:56.435Z,26.93
2018-09-05T07:38:24.126Z,30.80
2018-09-05T07:40:52.103Z,42.13
2018-09-05T07:43:19.640Z,33.50
2018-09-05T07:45:47.324Z,33.03
2018-09-05T07:48:15.094Z,35.90
2018-09-05T07:50:42.825Z,33.50
2018-09-05T07:53:10.500Z,34.80
2018-09-05T07:55:38.220Z,32.37
2018-09-05T07:58:05.946Z,32.37
2018-09-05T08:00:33.753Z,36.27
2018-09-05T08:03:01.352Z,27.57
2018-09-05T08:05:29.000Z,27.47
2018-09-05T08:07:56.710Z,27.20
2018-09-05T08:10:24.443Z,24.90
2018-09-05T08:12:52.118Z,25.43
2018-09-05T08:15:19.864Z,21.80
2018-09-05T08:17:47.463Z,19.80
2018-09-05T08:20:15.003Z,18.60
2018-09-05T08:22:42.760Z,18.10
2018-09-05T08:25:10.481Z,19.83
2018-09-05T08:27:38.203Z,21.10
2018-09-05T08:30:05.983Z,19.83
2018-09-05T08:32:33.685Z,19.80
2018-09-05T08:35:01.587Z,18.57
2018-09-05T08:37:29.431Z,17.57
2018-09-05T08:39:56.828Z,17.00
2018-09-05T08:42:24.546Z,20.33
2018-09-05T08:44:52.344Z,16.63
2018-09-05T08:47:19.948Z,15.87
2018-09-05T08:49:47.635Z,14.80
2018-09-05T08:52:15.359Z,13.13
2018-09-05T08:54:42.900Z,14.73
2018-09-05T08:57:10.587Z,14.97
2018-09-05T08:59:38.244Z,14.63
2018-09-05T09:02:05.966Z,13.63
2018-09-05T09:04:33.732Z,11.30
2018-09-05T09:07:01.420Z,15.13
2018-09-05T09:09:29.106Z,12.80
2018-09-05T09:11:56.759Z,11.90
2018-09-05T09:14:24.311Z,12.27
2018-09-05T09:16:52.847Z,11.37
2018-09-05T09:19:20.536Z,15.87
2018-09-05T09:21:48.869Z,14.20
2018-09-05T09:24:16.658Z,13.10
2018-09-05T09:26:44.442Z,11.70
2018-09-05T09:29:12.129Z,11.43
2018-09-05T09:31:39.715Z,9.73
2018-09-05T09:34:07.478Z,10.13
2018-09-05T09:36:35.155Z,10.87
2018-09-05T09:39:03.071Z,10.80
2018-09-05T09:41:30.724Z,10.73
2018-09-05T09:43:58.380Z,10.13
2018-09-05T09:46:26.072Z,9.77
2018-09-05T09:48:53.739Z,9.20
2018-09-05T09:51:22.176Z,11.13
2018-09-05T09:53:50.471Z,10.03
2018-09-05T09:56:18.187Z,9.10
2018-09-05T09:58:45.915Z,8.13
2018-09-05T10:01:19.055Z,9.27
2018-09-05T10:03:52.337Z,8.00
2018-09-05T10:06:25.356Z,7.97
2018-09-05T10:08:58.707Z,7.70
2018-09-05T10:11:31.765Z,7.65
2018-09-05T10:14:04.980Z,7.58
2018-09-05T10:16:38.735Z,6.62
2018-09-05T10:19:07.664Z,6.90
2018-09-05T10:21:35.320Z,6.65
2018-09-05T10:24:03.037Z,7.10
2018-09-05T10:26:30.581Z,6.28
2018-09-05T10:28:58.282Z,6.08
2018-09-05T10:31:26.003Z,7.12
2018-09-05T10:33:53.748Z,6.97
2018-09-05T10:36:21.463Z,7.42
2018-09-05T10:38:49.075Z,6.80
2018-09-05T10:41:16.737Z,6.37
2018-09-05T10:43:44.391Z,6.90
2018-09-05T10:46:12.163Z,6.33
2018-09-05T10:48:39.721Z,6.20
2018-09-05T10:51:07.392Z,6.80
2018-09-05T10:53:35.071Z,7.08
2018-09-05T10:56:02.682Z,6.70
2018-09-05T10:58:30.313Z,7.60
2018-09-05T11:00:58.010Z,7.65
2018-09-05T11:03:25.651Z,7.85
2018-09-05T11:05:53.372Z,6.65
2018-09-05T11:08:21.042Z,6.87
2018-09-05T11:10:48.784Z,6.12
2018-09-05T11:13:16.412Z,6.62
2018-09-05T11:15:44.056Z,6.72
2018-09-05T11:18:11.780Z,8.10
2018-09-05T11:20:39.555Z,7.45
2018-09-05T11:23:07.242Z,7.60
2018-09-05T11:25:34.930Z,7.92
2018-09-05T11:28:02.571Z,9.90
2018-09-05T11:30:30.246Z,7.35
2018-09-05T11:32:58.005Z,8.38
2018-09-05T11:35:25.687Z,7.03
2018-09-05T11:37:53.344Z,6.95
2018-09-05T11:40:21.095Z,7.33
2018-09-05T11:42:48.651Z,7.50
2018-09-05T11:45:18.355Z,7.58
2018-09-05T11:47:45.892Z,7.17
2018-09-05T11:50:13.597Z,7.23
2018-09-05T11:52:41.137Z,8.33
2018-09-05T11:55:08.871Z,8.43
2018-09-05T11:57:36.591Z,9.17
2018-09-05T12:00:04.400Z,7.73
2018-09-05T12:02:32.038Z,8.10
2018-09-05T12:04:59.756Z,9.05
2018-09-05T12:07:27.460Z,9.00
2018-09-05T12:09:55.139Z,8.78
2018-09-05T12:12:22.798Z,9.93
2018-09-05T12:14:50.441Z,8.70
2018-09-05T12:17:18.172Z,8.03
2018-09-05T12:19:45.843Z,8.03
2018-09-05T12:22:14.152Z,8.63
2018-09-05T12:24:41.828Z,7.80
2018-09-05T12:27:09.575Z,10.10
2018-09-05T12:29:37.337Z,8.77
2018-09-05T12:32:05.022Z,9.03
2018-09-05T12:34:32.661Z,9.67
2018-09-05T12:37:00.353Z,9.33
2018-09-05T12:39:28.022Z,8.83
2018-09-05T12:41:55.697Z,8.50
2018-09-05T12:44:23.330Z,8.67
2018-09-05T12:46:51.015Z,8.50
2018-09-05T12:49:18.652Z,9.03
2018-09-05T12:51:46.291Z,8.70
2018-09-05T12:54:14.004Z,9.73
2018-09-05T12:56:41.676Z,9.10
2018-09-05T12:59:09.424Z,8.87
2018-09-05T13:01:37.045Z,9.30
2018-09-05T13:04:04.847Z,9.03
2018-09-05T13:06:32.588Z,9.00
2018-09-05T13:09:00.261Z,8.63
2018-09-05T13:11:27.993Z,8.63
2018-09-05T13:13:55.716Z,8.60
2018-09-05T13:16:23.331Z,8.87
2018-09-05T13:18:51.070Z,8.40
2018-09-05T13:21:18.712Z,8.60
2018-09-05T13:23:46.523Z,8.00
2018-09-05T13:26:14.202Z,9.57
2018-09-05T13:28:41.906Z,8.87
2018-09-05T13:31:09.606Z,8.20
2018-09-05T13:33:37.293Z,8.23
2018-09-05T13:36:05.087Z,10.13
2018-09-05T13:38:32.851Z,8.80
2018-09-05T13:41:00.591Z,8.33
2018-09-05T13:43:28.237Z,8.17
2018-09-05T13:45:55.928Z,11.07
2018-09-05T13:48:23.613Z,8.63
2018-09-05T13:50:51.388Z,8.60
2018-09-05T13:53:19.074Z,8.70
2018-09-05T13:55:46.817Z,8.93
2018-09-05T13:58:14.466Z,9.47
2018-09-05T14:00:42.848Z,8.47
2018-09-05T14:03:10.721Z,9.50
2018-09-05T14:05:38.529Z,9.70
2018-09-05T14:08:06.264Z,9.30
2018-09-05T14:10:34.018Z,8.60
2018-09-05T14:13:01.701Z,8.15
2018-09-05T14:15:29.403Z,8.93
2018-09-05T14:17:56.981Z,8.73
2018-09-05T14:20:24.738Z,8.83
2018-09-05T14:22:52.407Z,8.63
2018-09-05T14:25:20.060Z,8.80
2018-09-05T14:27:48.591Z,8.78
2018-09-05T14:30:16.283Z,9.48
2018-09-05T14:32:43.952Z,9.40
2018-09-05T14:35:11.618Z,9.87
2018-09-05T14:37:39.334Z,10.18
2018-09-05T14:40:07.025Z,8.50
2018-09-05T14:42:34.708Z,9.67
2018-09-05T14:45:02.411Z,8.93
2018-09-05T14:47:30.108Z,9.00
2018-09-05T14:49:57.626Z,9.03
2018-09-05T14:52:25.373Z,8.90
2018-09-05T14:54:53.117Z,8.70
2018-09-05T14:57:20.812Z,8.13
2018-09-05T14:59:48.541Z,7.90
2018-09-05T15:02:16.113Z,9.00
2018-09-05T15:04:43.811Z,8.40
2018-09-05T15:07:11.509Z,8.18
2018-09-05T15:09:39.232Z,8.33
2018-09-05T15:12:06.878Z,8.70
2018-09-05T15:14:34.581Z,9.98
2018-09-05T15:17:02.286Z,8.35
2018-09-05T15:19:29.977Z,8.18
2018-09-05T15:21:57.668Z,8.95
2018-09-05T15:24:25.350Z,9.88
2018-09-05T15:26:53.008Z,8.55
2018-09-05T15:29:20.728Z,9.60
2018-09-05T15:31:48.421Z,9.68
2018-09-05T15:34:16.132Z,10.00
2018-09-05T15:36:44.012Z,9.20
2018-09-05T15:39:12.394Z,9.00
2018-09-05T15:41:40.034Z,9.33
2018-09-05T15:44:07.743Z,10.55
2018-09-05T15:46:35.357Z,10.38
2018-09-05T15:49:03.023Z,9.35
2018-09-05T15:51:30.747Z,10.75
2018-09-05T15:53:58.500Z,10.15
2018-09-05T15:56:26.136Z,9.43
2018-09-05T15:58:53.769Z,9.80
2018-09-05T16:01:21.479Z,10.35
2018-09-05T16:03:49.204Z,11.73
2018-09-05T16:06:16.922Z,9.60
2018-09-05T16:08:44.649Z,10.23
2018-09-05T16:11:12.320Z,10.10
2018-09-05T16:13:40.017Z,9.85
2018-09-05T16:16:07.703Z,10.20
2018-09-05T16:18:35.322Z,11.20
2018-09-05T16:21:02.998Z,11.33
2018-09-05T16:23:30.676Z,10.95
2018-09-05T16:25:58.316Z,10.68
2018-09-05T16:28:26.059Z,10.98
2018-09-05T16:30:53.747Z,10.78
2018-09-05T16:33:21.424Z,11.47
2018-09-05T16:35:49.142Z,11.95
2018-09-05T16:38:16.797Z,10.87
2018-09-05T16:40:44.396Z,13.10
2018-09-05T16:43:12.133Z,12.23
2018-09-05T16:45:39.837Z,11.20
2018-09-05T16:48:07.798Z,11.47
2018-09-05T16:50:35.488Z,12.73
2018-09-05T16:53:03.270Z,11.47
2018-09-05T16:55:30.977Z,11.20
2018-09-05T16:57:58.679Z,10.70
2018-09-05T17:00:26.214Z,11.40
2018-09-05T17:02:53.906Z,11.57
2018-09-05T17:05:21.584Z,10.27
2018-09-05T17:07:49.310Z,10.37
2018-09-05T17:10:17.009Z,11.20
2018-09-05T17:12:44.544Z,9.63
2018-09-05T17:15:12.100Z,10.17
2018-09-05T17:17:39.809Z,11.03
2018-09-05T17:20:07.598Z,10.57
2018-09-05T17:22:35.332Z,10.90
2018-09-05T17:25:03.062Z,11.20
2018-09-05T17:27:30.820Z,11.30
2018-09-05T17:29:58.548Z,10.77
2018-09-05T17:32:26.214Z,11.03
2018-09-05T17:34:53.959Z,12.23
2018-09-05T17:37:22.228Z,11.27
2018-09-05T17:39:49.913Z,11.90
2018-09-05T17:42:17.592Z,13.40
2018-09-05T17:44:45.290Z,14.67
2018-09-05T17:47:12.959Z,13.57
2018-09-05T17:49:40.662Z,12.37
2018-09-05T17:52:08.364Z,12.43
2018-09-05T17:54:36.017Z,12.43
2018-09-05T17:57:03.763Z,13.30
2018-09-05T17:59:31.461Z,12.63
2018-09-05T18:01:59.249Z,14.73
2018-09-05T18:04:26.978Z,15.47
2018-09-05T18:06:54.687Z,13.93
2018-09-05T18:09:22.357Z,12.93
2018-09-05T18:11:50.139Z,12.17
2018-09-05T18:14:17.907Z,13.40
2018-09-05T18:16:45.653Z,13.70
2018-09-05T18:19:13.344Z,12.63
2018-09-05T18:21:41.064Z,13.53
2018-09-05T18:24:08.801Z,11.20
2018-09-05T18:26:36.464Z,11.53
2018-09-05T18:29:04.070Z,12.47
2018-09-05T18:31:31.735Z,11.60
2018-09-05T18:33:59.474Z,14.67
2018-09-05T18:36:27.149Z,12.87
2018-09-05T18:38:54.708Z,13.13
2018-09-05T18:41:22.440Z,14.50
2018-09-05T18:43:50.139Z,16.67
2018-09-05T18:46:26.760Z,15.67
2018-09-05T18:48:54.892Z,16.67
2018-09-05T18:51:23.849Z,16.43
2018-09-05T18:53:51.693Z,15.60
2018-09-05T18:56:19.656Z,13.80
2018-09-05T18:58:47.568Z,16.80
2018-09-05T19:01:15.566Z,17.80
2018-09-05T19:03:43.639Z,18.13
2018-09-05T19:06:11.950Z,19.13
2018-09-05T19:08:40.016Z,15.87
2018-09-05T19:11:08.253Z,18.77
2018-09-05T19:13:38.331Z,19.13
2018-09-05T19:16:09.176Z,15.20
2018-09-05T19:18:36.940Z,17.57
2018-09-05T19:21:04.990Z,17.10
2018-09-05T19:23:33.200Z,17.23
2018-09-05T19:26:00.924Z,17.20
2018-09-05T19:28:28.597Z,20.40
2018-09-05T19:30:56.300Z,19.80
2018-09-05T19:33:24.016Z,17.97
2018-09-05T19:35:51.715Z,17.97
2018-09-05T19:38:19.324Z,20.37
2018-09-05T19:40:47.048Z,20.30
2018-09-05T19:43:14.784Z,15.90
2018-09-05T19:45:42.458Z,18.03
2018-09-05T19:48:10.184Z,18.40
2018-09-05T19:50:37.930Z,19.93
2018-09-05T19:53:05.689Z,18.07
2018-09-05T19:55:33.344Z,19.10
2018-09-05T19:58:01.058Z,20.67
2018-09-05T20:00:28.728Z,19.30
2018-09-05T20:02:56.433Z,21.77
2018-09-05T20:05:24.107Z,23.97
2018-09-05T20:07:51.798Z,25.33
2018-09-05T20:10:19.360Z,19.87
2018-09-05T20:12:47.063Z,21.53
2018-09-05T20:15:14.733Z,24.23
2018-09-05T20:17:42.415Z,19.27
2018-09-05T20:20:10.018Z,18.97
2018-09-05T20:22:37.578Z,22.17
2018-09-05T20:25:05.180Z,21.70
2018-09-05T20:27:32.878Z,22.60
2018-09-05T20:30:00.634Z,23.13
2018-09-05T20:32:28.318Z,24.27
2018-09-05T20:34:55.980Z,28.10
2018-09-05T20:37:23.715Z,21.03
2018-09-05T20:39:51.396Z,24.67
2018-09-05T20:42:18.939Z,23.10
2018-09-05T20:44:46.631Z,22.93
2018-09-05T20:47:14.204Z,29.70
2018-09-05T20:49:41.904Z,20.47
2018-09-05T20:52:09.625Z,21.00
2018-09-05T20:54:37.298Z,21.20
2018-09-05T20:57:04.954Z,22.97
2018-09-05T20:59:32.625Z,27.07
2018-09-05T21:02:00.305Z,24.20
2018-09-05T21:04:28.053Z,25.07
2018-09-05T21:06:56.036Z,22.97
2018-09-05T21:09:23.804Z,22.53
2018-09-05T21:11:51.463Z,26.63
2018-09-05T21:14:19.032Z,25.70
2018-09-05T21:16:46.786Z,23.00
2018-09-05T21:19:14.439Z,23.50
2018-09-05T21:21:42.116Z,25.23
2018-09-05T21:24:09.844Z,24.00
2018-09-05T21:26:37.587Z,21.37
2018-09-05T21:29:05.160Z,22.17
2018-09-05T21:31:32.880Z,26.27
2018-09-05T21:34:00.546Z,25.87
2018-09-05T21:36:28.264Z,24.60
2018-09-05T21:38:55.953Z,24.87
2018-09-05T21:41:23.589Z,26.03
2018-09-05T21:43:51.269Z,30.07
2018-09-05T21:46:18.836Z,28.77
2018-09-05T21:48:46.503Z,23.40
2018-09-05T21:51:14.174Z,26.97
2018-09-05T21:53:41.881Z,28.43
2018-09-05T21:56:09.546Z,32.13
2018-09-05T21:58:37.526Z,25.87
2018-09-05T22:01:05.266Z,26.93
2018-09-05T22:03:33.810Z,31.37
2018-09-05T22:06:01.398Z,31.10
2018-09-05T22:08:29.075Z,27.40
2018-09-05T22:11:01.281Z,26.80
2018-09-05T22:13:29.027Z,30.37
2018-09-05T22:15:56.485Z,26.17
2018-09-05T22:18:24.204Z,25.13
2018-09-05T22:20:51.850Z,28.33
2018-09-05T22:23:19.544Z,30.13
2018-09-05T22:25:47.214Z,26.33
2018-09-05T22:28:14.912Z,27.80
2018-09-05T22:30:42.560Z,30.47
2018-09-05T22:33:10.238Z,27.97
2018-09-05T22:35:37.905Z,27.20
2018-09-05T22:38:05.575Z,28.10
2018-09-05T22:41:05.317Z,24.90
2018-09-05T22:43:44.385Z,28.47
2018-09-05T22:46:17.600Z,27.17
2018-09-05T22:48:50.869Z,27.23
2018-09-05T22:51:52.041Z,27.30
2018-09-05T22:54:35.141Z,26.80
2018-09-05T22:59:17.791Z,29.73
2018-09-05T23:03:55.173Z,26.10
2018-09-05T23:07:42.396Z,25.60
2018-09-05T23:10:21.414Z,25.40
2018-09-05T23:14:03.186Z,31.40
2018-09-05T23:16:42.196Z,26.63
2018-09-05T23:19:27.841Z,23.80
2018-09-05T23:21:55.517Z,22.63
2018-09-05T23:24:23.244Z,26.57
2018-09-05T23:26:50.975Z,24.47
2018-09-05T23:29:18.695Z,26.77
2018-09-05T23:31:46.410Z,26.90
2018-09-05T23:34:14.092Z,28.77
2018-09-05T23:36:41.655Z,27.43
2018-09-05T23:39:09.250Z,28.93
2018-09-05T23:41:36.958Z,25.37
2018-09-05T23:44:04.519Z,26.13
2018-09-05T23:46:32.254Z,25.47
2018-09-05T23:48:59.982Z,24.97
2018-09-05T23:51:27.536Z,23.17
2018-09-05T23:53:55.115Z,30.77
2018-09-05T23:56:22.872Z,27.10
2018-09-05T23:58:50.435Z,26.07
